createdAt,value
2017-10-05T00:02:17.038Z,14.50
2017-10-05T00:04:44.917Z,10.80
2017-10-05T00:07:12.452Z,7.43
2017-10-05T00:09:40.327Z,8.27
2017-10-05T00:12:07.836Z,9.80
2017-10-05T00:14:36.109Z,8.20
2017-10-05T00:17:04.411Z,9.27
2017-10-05T00:19:34.161Z,6.10
2017-10-05T00:22:02.465Z,12.27
2017-10-05T00:24:30.792Z,12.30
2017-10-05T00:26:58.319Z,8.53
2017-10-05T00:31:58.696Z,10.40
2017-10-05T00:34:26.220Z,11.00
2017-10-05T00:36:53.733Z,16.17
2017-10-05T00:39:21.275Z,10.60
2017-10-05T00:41:49.446Z,11.33
2017-10-05T00:44:17.988Z,13.60
2017-10-05T00:46:45.571Z,7.63
2017-10-05T00:49:13.088Z,8.73
2017-10-05T00:51:41.551Z,15.67
2017-10-05T00:54:09.905Z,5.83
2017-10-05T00:56:37.421Z,15.00
2017-10-05T00:59:05.811Z,12.87
2017-10-05T01:01:33.412Z,8.00
2017-10-05T01:04:00.965Z,11.47
2017-10-05T01:06:29.341Z,6.60
2017-10-05T01:08:56.891Z,14.40
2017-10-05T01:11:24.794Z,9.67
2017-10-05T01:13:52.325Z,11.40
2017-10-05T01:16:19.931Z,8.67
2017-10-05T01:18:48.213Z,15.10
2017-10-05T01:21:16.494Z,14.70
2017-10-05T01:23:44.794Z,12.07
2017-10-05T01:26:12.301Z,9.90
2017-10-05T01:28:40.504Z,8.63
2017-10-05T01:31:08.157Z,11.97
2017-10-05T01:33:36.432Z,13.30
2017-10-05T01:36:04.729Z,13.90
2017-10-05T01:38:33.642Z,15.10
2017-10-05T01:41:01.291Z,11.40
2017-10-05T01:43:28.830Z,13.47
2017-10-05T01:45:57.137Z,14.67
2017-10-05T01:48:24.695Z,13.70
2017-10-05T01:50:52.364Z,16.53
2017-10-05T01:53:19.908Z,17.13
2017-10-05T01:55:47.431Z,11.73
2017-10-05T01:58:15.516Z,10.33
2017-10-05T02:00:43.096Z,10.85
2017-10-05T02:03:10.605Z,7.68
2017-10-05T02:05:38.109Z,17.83
2017-10-05T02:08:05.831Z,9.57
2017-10-05T02:10:33.429Z,12.83
2017-10-05T02:13:00.960Z,14.70
2017-10-05T02:15:28.527Z,10.60
2017-10-05T02:17:56.802Z,15.80
2017-10-05T02:20:25.336Z,7.45
2017-10-05T02:22:52.893Z,23.23
2017-10-05T02:25:20.631Z,11.82
2017-10-05T02:27:48.216Z,13.73
2017-10-05T02:30:15.794Z,14.23
2017-10-05T02:32:43.375Z,10.82
2017-10-05T02:35:10.893Z,14.82
2017-10-05T02:37:38.449Z,19.27
2017-10-05T02:40:05.980Z,6.93
2017-10-05T02:42:34.262Z,12.97
2017-10-05T02:45:01.827Z,11.07
2017-10-05T02:47:29.361Z,15.17
2017-10-05T02:49:57.649Z,8.73
2017-10-05T02:52:25.964Z,10.90
2017-10-05T02:54:53.496Z,9.52
2017-10-05T02:57:21.041Z,14.68
2017-10-05T02:59:49.355Z,13.65
2017-10-05T03:02:16.878Z,7.37
2017-10-05T03:04:45.236Z,12.50
2017-10-05T03:07:12.849Z,15.98
2017-10-05T03:09:40.387Z,12.23
2017-10-05T03:12:07.920Z,16.33
2017-10-05T03:14:35.517Z,12.73
2017-10-05T03:17:03.016Z,10.30
2017-10-05T03:19:30.544Z,12.75
2017-10-05T03:21:58.072Z,18.90
2017-10-05T03:24:26.347Z,11.63
2017-10-05T03:26:54.761Z,12.60
2017-10-05T03:29:23.082Z,10.60
2017-10-05T03:31:50.589Z,14.20
2017-10-05T03:34:18.124Z,16.10
2017-10-05T03:36:45.683Z,11.77
2017-10-05T03:39:13.211Z,17.23
2017-10-05T03:41:40.743Z,12.73
2017-10-05T03:44:09.234Z,25.67
2017-10-05T03:46:36.772Z,8.30
2017-10-05T03:49:04.299Z,11.75
2017-10-05T03:51:32.599Z,14.07
2017-10-05T03:54:00.900Z,12.57
2017-10-05T03:56:28.433Z,15.63
2017-10-05T03:58:55.976Z,16.40
2017-10-05T04:01:23.485Z,19.83
2017-10-05T04:03:51.008Z,17.50
2017-10-05T04:06:19.479Z,12.07
2017-10-05T04:08:47.136Z,14.63
2017-10-05T04:11:15.400Z,9.20
2017-10-05T04:13:43.719Z,13.77
2017-10-05T04:16:11.543Z,24.33
2017-10-05T04:18:39.095Z,16.67
2017-10-05T04:21:07.387Z,28.80
2017-10-05T04:23:36.487Z,18.50
2017-10-05T04:26:04.024Z,18.17
2017-10-05T04:28:33.071Z,17.10
2017-10-05T04:31:00.580Z,19.00
2017-10-05T04:33:28.864Z,14.63
2017-10-05T04:35:56.723Z,17.90
2017-10-05T04:38:25.133Z,20.20
2017-10-05T04:40:52.659Z,15.47
2017-10-05T04:43:20.318Z,17.80
2017-10-05T04:45:48.593Z,14.38
2017-10-05T04:48:16.123Z,16.10
2017-10-05T04:50:43.661Z,25.62
2017-10-05T04:53:11.168Z,16.80
2017-10-05T04:55:40.638Z,14.25
2017-10-05T04:58:08.972Z,23.90
2017-10-05T05:00:37.279Z,26.77
2017-10-05T05:03:05.043Z,22.60
2017-10-05T05:05:32.590Z,13.88
2017-10-05T05:08:00.102Z,19.53
2017-10-05T05:10:27.623Z,17.70
2017-10-05T05:12:55.171Z,25.07
2017-10-05T05:15:22.749Z,21.73
2017-10-05T05:17:50.267Z,22.80
2017-10-05T05:20:18.548Z,20.33
2017-10-05T05:22:46.861Z,15.43
2017-10-05T05:25:14.372Z,18.50
2017-10-05T05:27:41.888Z,22.07
2017-10-05T05:30:09.404Z,19.17
2017-10-05T05:32:37.667Z,17.60
2017-10-05T05:35:05.970Z,18.52
2017-10-05T05:37:33.503Z,21.48
2017-10-05T05:40:01.778Z,22.33
2017-10-05T05:42:30.076Z,30.33
2017-10-05T05:44:57.595Z,20.03
2017-10-05T05:47:25.108Z,21.67
2017-10-05T05:49:52.632Z,14.70
2017-10-05T05:52:20.919Z,18.27
2017-10-05T05:54:48.442Z,22.83
2017-10-05T05:57:16.023Z,16.13
2017-10-05T05:59:44.313Z,25.63
2017-10-05T06:02:12.591Z,18.70
2017-10-05T06:04:40.139Z,21.43
2017-10-05T06:07:08.426Z,22.47
2017-10-05T06:09:35.955Z,21.37
2017-10-05T06:12:03.523Z,17.90
2017-10-05T06:14:31.036Z,24.40
2017-10-05T06:16:58.567Z,27.63
2017-10-05T06:19:26.113Z,23.90
2017-10-05T06:21:54.391Z,26.00
2017-10-05T06:24:22.674Z,22.47
2017-10-05T06:26:51.617Z,19.40
2017-10-05T06:29:19.937Z,17.93
2017-10-05T06:31:48.228Z,26.70
2017-10-05T06:34:16.543Z,27.57
2017-10-05T06:36:45.277Z,19.90
2017-10-05T06:39:12.924Z,21.67
2017-10-05T06:41:40.468Z,22.10
2017-10-05T06:44:08.410Z,26.70
2017-10-05T06:46:35.943Z,23.30
2017-10-05T06:49:03.498Z,19.83
2017-10-05T06:51:31.015Z,30.00
2017-10-05T06:53:59.073Z,27.03
2017-10-05T06:56:27.011Z,22.70
2017-10-05T06:58:54.517Z,16.80
2017-10-05T07:01:22.041Z,29.93
2017-10-05T07:03:49.806Z,26.27
2017-10-05T07:06:17.339Z,21.93
2017-10-05T07:08:44.849Z,27.30
2017-10-05T07:11:12.400Z,23.70
2017-10-05T07:13:39.939Z,19.57
2017-10-05T07:16:07.469Z,24.53
2017-10-05T07:18:35.024Z,24.43
2017-10-05T07:21:03.305Z,29.93
2017-10-05T07:23:30.808Z,25.20
2017-10-05T07:25:58.355Z,29.30
2017-10-05T07:28:25.867Z,38.43
2017-10-05T07:30:54.158Z,35.70
2017-10-05T07:33:21.776Z,36.10
2017-10-05T07:35:49.298Z,28.00
2017-10-05T07:38:16.819Z,39.63
2017-10-05T07:40:45.128Z,22.63
2017-10-05T07:43:12.628Z,22.27
2017-10-05T07:45:40.151Z,27.73
2017-10-05T07:48:08.165Z,26.53
2017-10-05T07:50:35.684Z,33.27
2017-10-05T07:53:03.219Z,30.20
2017-10-05T07:55:31.722Z,29.13
2017-10-05T07:57:59.233Z,23.93
2017-10-05T08:00:26.755Z,35.17
2017-10-05T08:02:54.303Z,27.13
2017-10-05T08:05:21.817Z,32.13
2017-10-05T08:07:49.404Z,44.50
2017-10-05T08:10:16.968Z,30.10
2017-10-05T08:12:44.499Z,32.80
2017-10-05T08:15:12.764Z,28.13
2017-10-05T08:17:40.294Z,30.63
2017-10-05T08:20:07.988Z,41.30
2017-10-05T08:22:35.515Z,37.30
2017-10-05T08:25:03.057Z,39.57
2017-10-05T08:27:30.676Z,26.80
2017-10-05T08:29:58.959Z,31.13
2017-10-05T08:32:27.263Z,35.37
2017-10-05T08:34:54.799Z,28.43
2017-10-05T08:37:23.072Z,38.13
2017-10-05T08:39:51.383Z,27.37
2017-10-05T08:42:18.883Z,31.50
2017-10-05T08:44:46.381Z,32.23
2017-10-05T08:47:13.923Z,40.03
2017-10-05T08:49:42.208Z,28.20
2017-10-05T08:52:11.336Z,38.17
2017-10-05T08:54:38.990Z,32.37
2017-10-05T08:57:06.492Z,38.87
2017-10-05T08:59:34.006Z,33.80
2017-10-05T09:02:01.619Z,28.87
2017-10-05T09:04:29.179Z,27.00
2017-10-05T09:06:57.476Z,30.37
2017-10-05T09:09:28.049Z,22.77
2017-10-05T09:11:55.561Z,15.03
2017-10-05T09:14:23.830Z,19.10
2017-10-05T09:16:52.345Z,22.00
2017-10-05T09:19:19.856Z,18.30
2017-10-05T09:21:47.371Z,12.10
2017-10-05T09:24:14.928Z,9.97
2017-10-05T09:26:43.180Z,16.27
2017-10-05T09:29:10.715Z,14.10
2017-10-05T09:31:39.050Z,14.83
2017-10-05T09:34:06.561Z,12.37
2017-10-05T09:36:34.973Z,12.27
2017-10-05T09:39:02.543Z,10.07
2017-10-05T09:41:30.067Z,10.43
2017-10-05T09:43:57.589Z,9.83
2017-10-05T09:46:25.120Z,10.70
2017-10-05T09:48:52.632Z,13.80
2017-10-05T09:51:20.916Z,9.63
2017-10-05T09:53:49.193Z,11.77
2017-10-05T09:56:17.473Z,8.90
2017-10-05T09:58:45.763Z,13.70
2017-10-05T10:01:13.308Z,7.33
2017-10-05T10:03:41.758Z,11.80
2017-10-05T10:06:09.333Z,6.20
2017-10-05T10:08:37.624Z,8.07
2017-10-05T10:11:05.774Z,7.30
2017-10-05T10:13:33.328Z,7.17
2017-10-05T10:16:00.875Z,8.83
2017-10-05T10:18:29.184Z,5.47
2017-10-05T10:20:57.460Z,8.10
2017-10-05T10:23:25.960Z,6.80
2017-10-05T10:25:53.468Z,15.30
2017-10-05T10:28:20.977Z,13.00
2017-10-05T10:30:48.514Z,11.47
2017-10-05T10:33:16.788Z,14.47
2017-10-05T10:35:44.300Z,11.33
2017-10-05T10:38:11.846Z,14.03
2017-10-05T10:40:39.340Z,27.70
2017-10-05T10:43:06.877Z,22.57
2017-10-05T10:45:34.503Z,16.17
2017-10-05T10:48:02.016Z,12.97
2017-10-05T10:50:29.540Z,10.83
2017-10-05T10:52:57.112Z,13.40
2017-10-05T10:55:24.649Z,10.80
2017-10-05T10:57:52.153Z,25.77
2017-10-05T11:00:19.668Z,16.53
2017-10-05T11:02:47.764Z,21.30
2017-10-05T11:05:15.276Z,17.27
2017-10-05T11:07:43.569Z,18.80
2017-10-05T11:10:12.275Z,18.20
2017-10-05T11:12:39.796Z,20.20
2017-10-05T11:15:08.084Z,10.77
2017-10-05T11:17:36.345Z,19.53
2017-10-05T11:20:04.620Z,17.87
2017-10-05T11:22:32.921Z,13.07
2017-10-05T11:25:00.436Z,10.33
2017-10-05T11:27:27.959Z,13.43
2017-10-05T11:29:55.512Z,15.07
2017-10-05T11:32:23.014Z,12.03
2017-10-05T11:34:50.520Z,14.77
2017-10-05T11:37:18.067Z,14.73
2017-10-05T11:39:46.583Z,13.73
2017-10-05T11:42:14.196Z,10.53
2017-10-05T11:44:42.501Z,9.43
2017-10-05T11:47:10.238Z,9.03
2017-10-05T11:49:38.535Z,10.50
2017-10-05T11:52:06.048Z,6.10
2017-10-05T11:54:34.044Z,8.10
2017-10-05T11:57:02.317Z,7.17
2017-10-05T11:59:30.612Z,7.73
2017-10-05T12:01:58.128Z,10.70
2017-10-05T12:04:25.633Z,8.23
2017-10-05T12:06:53.147Z,7.00
2017-10-05T12:09:21.994Z,5.23
2017-10-05T12:11:49.707Z,5.10
2017-10-05T12:14:17.712Z,6.47
2017-10-05T12:16:45.290Z,7.70
2017-10-05T12:19:12.784Z,11.70
2017-10-05T12:21:40.320Z,6.70
2017-10-05T12:24:07.835Z,13.00
2017-10-05T12:26:36.092Z,6.13
2017-10-05T12:29:03.648Z,6.63
2017-10-05T12:31:31.144Z,4.90
2017-10-05T12:33:59.439Z,9.40
2017-10-05T12:36:27.138Z,8.53
2017-10-05T12:38:55.974Z,7.77
2017-10-05T12:41:23.536Z,13.07
2017-10-05T12:43:51.087Z,7.73
2017-10-05T12:46:18.597Z,7.80
2017-10-05T12:48:46.750Z,4.20
2017-10-05T12:51:14.303Z,4.67
2017-10-05T12:53:41.808Z,5.80
2017-10-05T12:56:09.941Z,4.73
2017-10-05T12:58:39.336Z,4.23
2017-10-05T13:01:06.873Z,5.93
2017-10-05T13:03:34.386Z,6.37
2017-10-05T13:06:01.920Z,6.50
2017-10-05T13:08:30.551Z,5.93
2017-10-05T13:10:58.279Z,7.10
2017-10-05T13:13:25.816Z,10.87
2017-10-05T13:15:53.759Z,3.60
2017-10-05T13:18:22.032Z,5.70
2017-10-05T13:20:50.353Z,6.97
2017-10-05T13:23:17.895Z,14.80
2017-10-05T13:25:45.399Z,3.80
2017-10-05T13:28:12.925Z,7.53
2017-10-05T13:30:40.450Z,7.90
2017-10-05T13:33:08.708Z,6.50
2017-10-05T13:35:36.252Z,9.40
2017-10-05T13:38:03.776Z,5.63
2017-10-05T13:40:31.282Z,6.00
2017-10-05T13:42:59.581Z,9.50
2017-10-05T13:45:27.696Z,5.73
2017-10-05T13:47:55.235Z,7.60
2017-10-05T13:50:22.752Z,9.20
2017-10-05T13:52:50.241Z,9.63
2017-10-05T13:55:17.758Z,7.70
2017-10-05T13:57:45.296Z,9.37
2017-10-05T14:00:12.837Z,11.07
2017-10-05T14:02:40.749Z,9.23
2017-10-05T14:05:08.348Z,7.63
2017-10-05T14:07:36.292Z,6.50
2017-10-05T14:10:04.589Z,13.50
2017-10-05T14:12:32.134Z,9.80
2017-10-05T14:15:00.422Z,9.63
2017-10-05T14:17:28.012Z,12.03
2017-10-05T14:19:55.698Z,19.13
2017-10-05T14:22:24.467Z,6.90
2017-10-05T14:24:52.062Z,13.60
2017-10-05T14:27:19.633Z,12.80
2017-10-05T14:29:47.892Z,7.60
2017-10-05T14:32:15.844Z,5.23
2017-10-05T14:34:43.492Z,8.20
2017-10-05T14:37:11.136Z,4.40
2017-10-05T14:39:39.639Z,4.40
2017-10-05T14:42:07.408Z,7.83
2017-10-05T14:44:36.197Z,4.30
2017-10-05T14:47:04.085Z,8.07
2017-10-05T14:49:31.949Z,5.80
2017-10-05T14:52:00.734Z,4.80
2017-10-05T14:54:29.529Z,4.33
2017-10-05T14:56:57.483Z,5.93
2017-10-05T14:59:26.538Z,4.97
2017-10-05T15:01:54.626Z,6.10
2017-10-05T15:04:22.917Z,2.87
2017-10-05T15:06:50.890Z,5.53
2017-10-05T15:09:19.062Z,5.50
2017-10-05T15:11:47.205Z,4.47
2017-10-05T15:14:15.300Z,5.20
2017-10-05T15:16:44.540Z,4.30
2017-10-05T15:19:13.078Z,2.97
2017-10-05T15:21:41.219Z,2.70
2017-10-05T15:24:10.239Z,4.17
2017-10-05T15:26:38.510Z,4.70
2017-10-05T15:29:06.642Z,8.20
2017-10-05T15:31:34.814Z,4.27
2017-10-05T15:34:04.067Z,5.20
2017-10-05T15:36:32.760Z,6.43
2017-10-05T15:39:00.868Z,4.90
2017-10-05T15:41:29.506Z,8.37
2017-10-05T15:43:57.613Z,7.40
2017-10-05T15:46:27.626Z,14.17
2017-10-05T15:48:55.962Z,7.77
2017-10-05T15:51:25.020Z,7.53
2017-10-05T15:53:53.619Z,7.30
2017-10-05T15:56:22.135Z,6.37
2017-10-05T15:58:50.204Z,6.63
2017-10-05T16:01:18.989Z,6.47
2017-10-05T16:03:47.889Z,4.70
2017-10-05T16:06:18.015Z,4.27
2017-10-05T16:08:46.054Z,2.90
2017-10-05T16:11:13.843Z,2.97
2017-10-05T16:13:41.791Z,3.90
2017-10-05T16:16:10.294Z,4.77
2017-10-05T16:18:39.424Z,2.73
2017-10-05T16:21:07.129Z,8.60
2017-10-05T16:23:35.607Z,2.97
2017-10-05T16:26:04.217Z,7.30
2017-10-05T16:28:31.868Z,4.37
2017-10-05T16:30:59.501Z,7.13
2017-10-05T16:33:27.818Z,2.87
2017-10-05T16:35:56.204Z,5.47
2017-10-05T16:38:24.277Z,3.57
2017-10-05T16:40:52.555Z,4.47
2017-10-05T16:43:20.140Z,6.70
2017-10-05T16:45:47.973Z,4.63
2017-10-05T16:48:16.093Z,3.57
2017-10-05T16:50:43.588Z,3.00
2017-10-05T16:53:11.108Z,6.83
2017-10-05T16:55:39.427Z,11.03
2017-10-05T16:58:07.312Z,6.30
2017-10-05T17:00:34.808Z,3.20
2017-10-05T17:03:02.414Z,6.53
2017-10-05T17:05:29.921Z,3.73
2017-10-05T17:07:57.476Z,2.70
2017-10-05T17:10:25.026Z,3.33
2017-10-05T17:12:52.564Z,7.73
2017-10-05T17:15:20.110Z,5.63
2017-10-05T17:17:47.684Z,6.63
2017-10-05T17:20:15.223Z,4.73
2017-10-05T17:22:42.749Z,11.97
2017-10-05T17:25:10.297Z,5.43
2017-10-05T17:27:37.951Z,6.47
2017-10-05T17:30:05.816Z,8.03
2017-10-05T17:32:33.369Z,7.67
2017-10-05T17:35:01.296Z,5.50
2017-10-05T17:37:31.022Z,3.80
2017-10-05T17:39:58.638Z,4.30
2017-10-05T17:42:26.186Z,4.30
2017-10-05T17:44:54.992Z,5.95
2017-10-05T17:47:22.549Z,6.53
2017-10-05T17:49:50.963Z,4.03
2017-10-05T17:52:18.541Z,9.60
2017-10-05T17:54:46.066Z,8.63
2017-10-05T17:57:13.725Z,5.40
2017-10-05T17:59:41.440Z,7.87
2017-10-05T18:02:09.164Z,5.80
2017-10-05T18:04:36.746Z,5.27
2017-10-05T18:07:04.467Z,4.50
2017-10-05T18:09:32.540Z,7.83
2017-10-05T18:12:00.812Z,5.53
2017-10-05T18:14:29.170Z,5.97
2017-10-05T18:16:56.768Z,8.83
2017-10-05T18:19:24.543Z,6.30
2017-10-05T18:21:52.192Z,6.63
2017-10-05T18:24:20.702Z,6.60
2017-10-05T18:26:48.569Z,5.50
2017-10-05T18:29:16.257Z,5.80
2017-10-05T18:31:45.143Z,7.97
2017-10-05T18:34:13.728Z,2.80
2017-10-05T18:36:41.331Z,3.33
2017-10-05T18:39:09.000Z,6.33
2017-10-05T18:41:36.777Z,4.83
2017-10-05T18:44:04.539Z,4.10
2017-10-05T18:46:32.411Z,3.50
2017-10-05T18:49:00.154Z,5.63
2017-10-05T18:51:28.039Z,5.37
2017-10-05T18:53:56.817Z,6.93
2017-10-05T18:56:24.657Z,5.43
2017-10-05T18:58:52.499Z,6.13
2017-10-05T19:01:20.185Z,4.73
2017-10-05T19:03:48.544Z,4.50
2017-10-05T19:06:17.143Z,7.72
2017-10-05T19:08:45.286Z,4.57
2017-10-05T19:11:13.901Z,8.60
2017-10-05T19:13:41.635Z,8.52
2017-10-05T19:16:09.218Z,6.25
2017-10-05T19:18:36.859Z,4.32
2017-10-05T19:21:04.502Z,3.50
2017-10-05T19:23:32.050Z,6.63
2017-10-05T19:25:59.590Z,4.17
2017-10-05T19:28:27.108Z,4.33
2017-10-05T19:30:54.645Z,6.27
2017-10-05T19:33:22.218Z,9.70
2017-10-05T19:35:50.577Z,5.75
2017-10-05T19:38:18.361Z,5.60
2017-10-05T19:40:45.875Z,7.28
2017-10-05T19:43:13.433Z,4.07
2017-10-05T19:45:41.743Z,6.00
2017-10-05T19:48:09.299Z,6.50
2017-10-05T19:50:36.840Z,9.05
2017-10-05T19:53:04.403Z,6.55
2017-10-05T19:55:31.921Z,4.30
2017-10-05T19:58:00.312Z,9.90
2017-10-05T20:00:28.709Z,8.95
2017-10-05T20:02:56.245Z,4.00
2017-10-05T20:05:24.553Z,4.80
2017-10-05T20:07:52.103Z,3.53
2017-10-05T20:10:20.389Z,8.20
2017-10-05T20:12:48.072Z,4.67
2017-10-05T20:15:26.388Z,6.47
2017-10-05T20:21:12.894Z,4.72
2017-10-05T20:23:42.250Z,4.75
2017-10-05T20:26:10.706Z,6.10
2017-10-05T20:28:59.152Z,6.28
2017-10-05T20:31:30.182Z,6.93
2017-10-05T20:33:57.702Z,6.15
2017-10-05T20:36:25.362Z,5.65
2017-10-05T20:38:53.643Z,5.70
2017-10-05T20:41:21.925Z,6.15
2017-10-05T20:43:49.479Z,7.57
2017-10-05T20:46:18.066Z,6.00
2017-10-05T20:48:45.660Z,5.82
2017-10-05T20:51:13.461Z,11.05
2017-10-05T20:53:40.972Z,5.70
2017-10-05T20:56:09.283Z,7.87
2017-10-05T20:58:36.828Z,5.55
2017-10-05T21:01:04.358Z,10.48
2017-10-05T21:03:32.476Z,6.07
2017-10-05T21:06:00.011Z,5.78
2017-10-05T21:08:27.544Z,5.35
2017-10-05T21:10:55.357Z,5.93
2017-10-05T21:13:22.912Z,4.80
2017-10-05T21:15:50.436Z,8.38
2017-10-05T21:18:17.978Z,7.47
2017-10-05T21:20:46.950Z,3.65
2017-10-05T21:23:14.513Z,4.40
2017-10-05T21:25:44.946Z,6.78
2017-10-05T21:28:12.540Z,7.03
2017-10-05T21:30:40.061Z,4.75
2017-10-05T21:33:08.378Z,9.30
2017-10-05T21:35:36.717Z,16.37
2017-10-05T21:38:05.393Z,7.90
2017-10-05T21:40:32.969Z,5.57
2017-10-05T21:43:01.110Z,8.13
2017-10-05T21:45:29.495Z,7.30
2017-10-05T21:47:58.548Z,8.55
2017-10-05T21:50:26.073Z,9.38
2017-10-05T21:52:54.854Z,4.85
2017-10-05T21:55:22.546Z,6.30
2017-10-05T21:57:50.074Z,7.07
2017-10-05T22:00:18.358Z,5.32
2017-10-05T22:02:47.680Z,3.97
2017-10-05T22:05:15.445Z,9.18
2017-10-05T22:07:43.316Z,5.55
2017-10-05T22:10:10.944Z,7.47
2017-10-05T22:12:38.507Z,10.48
2017-10-05T22:15:06.065Z,12.70
2017-10-05T22:17:33.978Z,6.00
2017-10-05T22:20:01.521Z,8.13
2017-10-05T22:22:30.425Z,10.23
2017-10-05T22:24:59.452Z,6.68
2017-10-05T22:27:28.272Z,6.78
2017-10-05T22:29:55.880Z,6.75
2017-10-05T22:32:24.421Z,8.93
2017-10-05T22:34:53.685Z,6.12
2017-10-05T22:37:23.631Z,9.30
2017-10-05T22:39:52.107Z,6.80
2017-10-05T22:42:19.618Z,6.45
2017-10-05T22:44:48.101Z,5.97
2017-10-05T22:47:17.039Z,7.30
2017-10-05T22:49:45.015Z,9.95
2017-10-05T22:52:12.593Z,8.65
2017-10-05T22:54:40.994Z,5.87
2017-10-05T22:57:08.520Z,5.20
2017-10-05T22:59:36.869Z,7.43
2017-10-05T23:02:04.386Z,5.40
2017-10-05T23:04:31.904Z,9.63
2017-10-05T23:07:00.224Z,5.03
2017-10-05T23:09:27.760Z,5.75
2017-10-05T23:11:55.428Z,6.68
2017-10-05T23:14:22.949Z,5.25
2017-10-05T23:16:50.488Z,10.30
2017-10-05T23:19:18.022Z,6.00
2017-10-05T23:21:45.573Z,8.07
2017-10-05T23:24:13.126Z,12.68
2017-10-05T23:26:41.219Z,6.28
2017-10-05T23:29:08.979Z,5.55
2017-10-05T23:31:37.241Z,9.18
2017-10-05T23:34:06.512Z,7.25
2017-10-05T23:36:34.940Z,14.10
2017-10-05T23:39:02.440Z,14.00
2017-10-05T23:41:31.402Z,11.98
2017-10-05T23:43:59.713Z,9.90
2017-10-05T23:46:27.257Z,13.30
2017-10-05T23:48:55.541Z,10.90
2017-10-05T23:51:23.068Z,18.58
2017-10-05T23:53:50.619Z,16.15
2017-10-05T23:56:18.281Z,11.18
2017-10-05T23:58:46.020Z,15.70
